sensor_id;sensor_type;location;lat;lon;timestamp;P1;durP1;ratioP1;P2;durP2;ratioP2
15192;SDS011;7697;51.630;7.484;2023-11-19T00:03:22;1.45;;;1.33;;
15192;SDS011;7697;51.630;7.484;2023-11-19T00:08:25;2.88;;;1.50;;
15192;SDS011;7697;51.630;7.484;2023-11-19T00:13:27;6.25;;;2.70;;
15192;SDS011;7697;51.630;7.484;2023-11-19T00:18:31;4.68;;;2.72;;
15192;SDS011;7697;51.630;7.484;2023-11-19T00:23:38;3.55;;;2.33;;
15192;SDS011;7697;51.630;7.484;2023-11-19T00:28:41;4.35;;;2.42;;
15192;SDS011;7697;51.630;7.484;2023-11-19T00:33:48;4.03;;;2.20;;
15192;SDS011;7697;51.630;7.484;2023-11-19T00:38:57;4.00;;;2.42;;
15192;SDS011;7697;51.630;7.484;2023-11-19T00:44:07;3.28;;;2.63;;
15192;SDS011;7697;51.630;7.484;2023-11-19T00:54:50;3.63;;;2.20;;
15192;SDS011;7697;51.630;7.484;2023-11-19T01:00:08;3.40;;;2.78;;
15192;SDS011;7697;51.630;7.484;2023-11-19T01:05:18;2.70;;;2.50;;
15192;SDS011;7697;51.630;7.484;2023-11-19T01:10:40;3.67;;;2.80;;
15192;SDS011;7697;51.630;7.484;2023-11-19T01:15:56;4.60;;;3.70;;
15192;SDS011;7697;51.630;7.484;2023-11-19T01:21:02;3.90;;;3.60;;
15192;SDS011;7697;51.630;7.484;2023-11-19T01:26:12;4.32;;;3.92;;
15192;SDS011;7697;51.630;7.484;2023-11-19T01:31:22;4.75;;;3.95;;
15192;SDS011;7697;51.630;7.484;2023-11-19T01:36:25;5.90;;;4.68;;
15192;SDS011;7697;51.630;7.484;2023-11-19T01:41:30;4.63;;;4.05;;
15192;SDS011;7697;51.630;7.484;2023-11-19T01:46:37;4.53;;;4.13;;
15192;SDS011;7697;51.630;7.484;2023-11-19T01:51:42;5.70;;;5.18;;
15192;SDS011;7697;51.630;7.484;2023-11-19T01:56:47;4.10;;;3.70;;
15192;SDS011;7697;51.630;7.484;2023-11-19T02:01:51;3.85;;;3.40;;
15192;SDS011;7697;51.630;7.484;2023-11-19T02:06:57;5.18;;;3.38;;
15192;SDS011;7697;51.630;7.484;2023-11-19T02:12:06;3.72;;;2.92;;
15192;SDS011;7697;51.630;7.484;2023-11-19T02:17:25;3.15;;;2.80;;
15192;SDS011;7697;51.630;7.484;2023-11-19T02:22:34;3.75;;;2.97;;
15192;SDS011;7697;51.630;7.484;2023-11-19T02:27:45;3.97;;;2.90;;
15192;SDS011;7697;51.630;7.484;2023-11-19T02:33:14;3.60;;;2.72;;
15192;SDS011;7697;51.630;7.484;2023-11-19T02:38:52;3.53;;;3.20;;
15192;SDS011;7697;51.630;7.484;2023-11-19T02:44:34;7.28;;;3.20;;
15192;SDS011;7697;51.630;7.484;2023-11-19T02:49:50;5.40;;;2.70;;
15192;SDS011;7697;51.630;7.484;2023-11-19T02:55:05;5.07;;;3.10;;
15192;SDS011;7697;51.630;7.484;2023-11-19T03:00:15;4.78;;;3.20;;
15192;SDS011;7697;51.630;7.484;2023-11-19T03:05:24;4.63;;;3.30;;
15192;SDS011;7697;51.630;7.484;2023-11-19T03:10:36;3.83;;;2.78;;
15192;SDS011;7697;51.630;7.484;2023-11-19T03:15:54;6.32;;;3.40;;
15192;SDS011;7697;51.630;7.484;2023-11-19T03:21:31;4.95;;;2.70;;
15192;SDS011;7697;51.630;7.484;2023-11-19T03:26:48;4.85;;;2.78;;
15192;SDS011;7697;51.630;7.484;2023-11-19T03:32:04;7.82;;;3.25;;
15192;SDS011;7697;51.630;7.484;2023-11-19T03:37:32;3.67;;;2.13;;
15192;SDS011;7697;51.630;7.484;2023-11-19T03:42:51;4.90;;;2.55;;
15192;SDS011;7697;51.630;7.484;2023-11-19T04:22:34;8.35;;;2.78;;
15192;SDS011;7697;51.630;7.484;2023-11-19T04:27:40;13.00;;;3.30;;
15192;SDS011;7697;51.630;7.484;2023-11-19T04:32:56;8.48;;;2.83;;
15192;SDS011;7697;51.630;7.484;2023-11-19T04:38:05;8.85;;;3.35;;
15192;SDS011;7697;51.630;7.484;2023-11-19T04:43:15;9.55;;;2.60;;
15192;SDS011;7697;51.630;7.484;2023-11-19T04:48:23;9.95;;;3.30;;
15192;SDS011;7697;51.630;7.484;2023-11-19T04:53:31;9.93;;;3.47;;
15192;SDS011;7697;51.630;7.484;2023-11-19T04:58:52;11.98;;;3.47;;
15192;SDS011;7697;51.630;7.484;2023-11-19T05:05:37;14.35;;;3.50;;
15192;SDS011;7697;51.630;7.484;2023-11-19T05:10:46;10.80;;;3.10;;
15192;SDS011;7697;51.630;7.484;2023-11-19T05:15:50;15.23;;;3.80;;
15192;SDS011;7697;51.630;7.484;2023-11-19T05:21:03;10.20;;;2.92;;
15192;SDS011;7697;51.630;7.484;2023-11-19T05:26:16;9.38;;;2.80;;
15192;SDS011;7697;51.630;7.484;2023-11-19T05:31:20;13.60;;;3.33;;
15192;SDS011;7697;51.630;7.484;2023-11-19T05:36:42;12.60;;;3.38;;
15192;SDS011;7697;51.630;7.484;2023-11-19T05:41:50;16.02;;;3.92;;
15192;SDS011;7697;51.630;7.484;2023-11-19T05:46:57;13.18;;;4.28;;
15192;SDS011;7697;51.630;7.484;2023-11-19T05:57:33;13.73;;;3.60;;
15192;SDS011;7697;51.630;7.484;2023-11-19T06:02:42;14.90;;;3.78;;
15192;SDS011;7697;51.630;7.484;2023-11-19T06:07:47;15.77;;;4.32;;
15192;SDS011;7697;51.630;7.484;2023-11-19T06:12:51;16.75;;;4.28;;
15192;SDS011;7697;51.630;7.484;2023-11-19T06:17:56;15.77;;;4.00;;
15192;SDS011;7697;51.630;7.484;2023-11-19T06:23:09;17.50;;;3.92;;
15192;SDS011;7697;51.630;7.484;2023-11-19T06:28:20;17.40;;;4.55;;
15192;SDS011;7697;51.630;7.484;2023-11-19T06:33:25;14.88;;;4.53;;
15192;SDS011;7697;51.630;7.484;2023-11-19T06:38:32;12.60;;;3.90;;
15192;SDS011;7697;51.630;7.484;2023-11-19T06:43:34;19.35;;;4.35;;
15192;SDS011;7697;51.630;7.484;2023-11-19T06:48:36;12.55;;;3.60;;
15192;SDS011;7697;51.630;7.484;2023-11-19T06:53:40;12.55;;;4.07;;
15192;SDS011;7697;51.630;7.484;2023-11-19T06:58:41;13.57;;;4.13;;
15192;SDS011;7697;51.630;7.484;2023-11-19T07:03:49;18.00;;;4.38;;
15192;SDS011;7697;51.630;7.484;2023-11-19T07:08:58;16.77;;;4.20;;
15192;SDS011;7697;51.630;7.484;2023-11-19T07:14:00;12.15;;;4.57;;
15192;SDS011;7697;51.630;7.484;2023-11-19T07:19:04;14.88;;;3.92;;
15192;SDS011;7697;51.630;7.484;2023-11-19T07:24:08;17.98;;;4.47;;
15192;SDS011;7697;51.630;7.484;2023-11-19T07:29:13;18.80;;;4.60;;
15192;SDS011;7697;51.630;7.484;2023-11-19T07:34:15;17.88;;;4.55;;
15192;SDS011;7697;51.630;7.484;2023-11-19T07:39:18;10.88;;;3.67;;
15192;SDS011;7697;51.630;7.484;2023-11-19T07:44:21;15.93;;;4.68;;
15192;SDS011;7697;51.630;7.484;2023-11-19T07:49:22;14.60;;;4.32;;
15192;SDS011;7697;51.630;7.484;2023-11-19T07:54:29;30.52;;;5.30;;
15192;SDS011;7697;51.630;7.484;2023-11-19T07:59:32;19.15;;;4.80;;
15192;SDS011;7697;51.630;7.484;2023-11-19T08:04:34;16.02;;;4.00;;
15192;SDS011;7697;51.630;7.484;2023-11-19T08:09:44;19.83;;;4.97;;
15192;SDS011;7697;51.630;7.484;2023-11-19T08:14:48;16.20;;;4.43;;
15192;SDS011;7697;51.630;7.484;2023-11-19T08:19:52;13.15;;;3.63;;
15192;SDS011;7697;51.630;7.484;2023-11-19T08:25:05;14.10;;;4.60;;
15192;SDS011;7697;51.630;7.484;2023-11-19T08:30:11;15.60;;;5.28;;
15192;SDS011;7697;51.630;7.484;2023-11-19T08:35:15;17.15;;;5.20;;
15192;SDS011;7697;51.630;7.484;2023-11-19T08:40:42;14.50;;;4.30;;
15192;SDS011;7697;51.630;7.484;2023-11-19T08:45:58;17.50;;;5.20;;
15192;SDS011;7697;51.630;7.484;2023-11-19T08:51:44;16.98;;;4.28;;
15192;SDS011;7697;51.630;7.484;2023-11-19T08:56:51;18.80;;;4.35;;
15192;SDS011;7697;51.630;7.484;2023-11-19T09:01:57;26.17;;;5.20;;
15192;SDS011;7697;51.630;7.484;2023-11-19T09:07:00;20.00;;;4.93;;
15192;SDS011;7697;51.630;7.484;2023-11-19T09:12:05;13.32;;;4.25;;
15192;SDS011;7697;51.630;7.484;2023-11-19T09:17:07;16.80;;;4.55;;
15192;SDS011;7697;51.630;7.484;2023-11-19T09:22:14;16.88;;;5.18;;
15192;SDS011;7697;51.630;7.484;2023-11-19T09:27:21;20.50;;;5.10;;
15192;SDS011;7697;51.630;7.484;2023-11-19T09:37:39;14.65;;;4.38;;
15192;SDS011;7697;51.630;7.484;2023-11-19T09:42:43;18.60;;;5.45;;
15192;SDS011;7697;51.630;7.484;2023-11-19T09:47:47;16.95;;;5.38;;
15192;SDS011;7697;51.630;7.484;2023-11-19T09:52:49;20.95;;;4.70;;
15192;SDS011;7697;51.630;7.484;2023-11-19T09:57:52;17.58;;;4.35;;
15192;SDS011;7697;51.630;7.484;2023-11-19T10:02:55;17.23;;;4.68;;
15192;SDS011;7697;51.630;7.484;2023-11-19T10:08:01;17.27;;;4.80;;
15192;SDS011;7697;51.630;7.484;2023-11-19T10:13:04;23.38;;;4.95;;
15192;SDS011;7697;51.630;7.484;2023-11-19T10:18:06;20.45;;;5.45;;
15192;SDS011;7697;51.630;7.484;2023-11-19T10:23:09;17.63;;;4.88;;
15192;SDS011;7697;51.630;7.484;2023-11-19T10:28:12;11.68;;;3.97;;
15192;SDS011;7697;51.630;7.484;2023-11-19T10:33:17;18.55;;;4.78;;
15192;SDS011;7697;51.630;7.484;2023-11-19T10:38:20;15.60;;;4.00;;
15192;SDS011;7697;51.630;7.484;2023-11-19T10:43:23;15.68;;;4.07;;
15192;SDS011;7697;51.630;7.484;2023-11-19T10:48:25;21.65;;;5.32;;
15192;SDS011;7697;51.630;7.484;2023-11-19T10:53:28;18.70;;;5.03;;
15192;SDS011;7697;51.630;7.484;2023-11-19T10:58:32;18.13;;;4.72;;
15192;SDS011;7697;51.630;7.484;2023-11-19T11:03:36;21.02;;;4.93;;
15192;SDS011;7697;51.630;7.484;2023-11-19T11:08:41;16.67;;;3.83;;
15192;SDS011;7697;51.630;7.484;2023-11-19T11:13:45;18.52;;;5.00;;
15192;SDS011;7697;51.630;7.484;2023-11-19T11:18:49;19.60;;;4.65;;
15192;SDS011;7697;51.630;7.484;2023-11-19T11:29:20;20.17;;;5.00;;
15192;SDS011;7697;51.630;7.484;2023-11-19T11:34:35;11.73;;;3.78;;
15192;SDS011;7697;51.630;7.484;2023-11-19T11:39:50;21.63;;;4.43;;
15192;SDS011;7697;51.630;7.484;2023-11-19T11:45:02;18.85;;;4.15;;
15192;SDS011;7697;51.630;7.484;2023-11-19T11:50:08;21.50;;;4.90;;
15192;SDS011;7697;51.630;7.484;2023-11-19T11:55:11;11.63;;;3.45;;
15192;SDS011;7697;51.630;7.484;2023-11-19T12:00:15;15.30;;;4.45;;
15192;SDS011;7697;51.630;7.484;2023-11-19T12:05:23;16.45;;;4.82;;
15192;SDS011;7697;51.630;7.484;2023-11-19T12:10:25;16.08;;;5.18;;
15192;SDS011;7697;51.630;7.484;2023-11-19T12:15:28;20.10;;;5.15;;
15192;SDS011;7697;51.630;7.484;2023-11-19T12:20:30;17.63;;;4.60;;
15192;SDS011;7697;51.630;7.484;2023-11-19T12:25:36;15.98;;;4.07;;
15192;SDS011;7697;51.630;7.484;2023-11-19T12:30:39;12.18;;;4.35;;
15192;SDS011;7697;51.630;7.484;2023-11-19T12:35:42;12.93;;;3.58;;
15192;SDS011;7697;51.630;7.484;2023-11-19T12:40:44;17.58;;;4.50;;
15192;SDS011;7697;51.630;7.484;2023-11-19T12:45:49;14.07;;;4.00;;
15192;SDS011;7697;51.630;7.484;2023-11-19T12:50:52;18.50;;;4.35;;
15192;SDS011;7697;51.630;7.484;2023-11-19T12:55:54;12.82;;;4.03;;
15192;SDS011;7697;51.630;7.484;2023-11-19T13:01:02;19.15;;;4.25;;
15192;SDS011;7697;51.630;7.484;2023-11-19T13:06:06;22.73;;;6.45;;
15192;SDS011;7697;51.630;7.484;2023-11-19T13:11:10;15.60;;;4.45;;
15192;SDS011;7697;51.630;7.484;2023-11-19T13:16:14;17.10;;;5.22;;
15192;SDS011;7697;51.630;7.484;2023-11-19T13:21:17;10.95;;;3.80;;
15192;SDS011;7697;51.630;7.484;2023-11-19T13:26:19;11.77;;;3.13;;
15192;SDS011;7697;51.630;7.484;2023-11-19T13:31:22;12.13;;;4.68;;
15192;SDS011;7697;51.630;7.484;2023-11-19T13:36:24;15.07;;;4.55;;
15192;SDS011;7697;51.630;7.484;2023-11-19T13:41:26;14.23;;;4.50;;
15192;SDS011;7697;51.630;7.484;2023-11-19T13:46:30;14.20;;;4.40;;
15192;SDS011;7697;51.630;7.484;2023-11-19T13:51:31;11.55;;;4.22;;
15192;SDS011;7697;51.630;7.484;2023-11-19T13:56:33;10.82;;;4.00;;
15192;SDS011;7697;51.630;7.484;2023-11-19T14:01:36;7.85;;;3.45;;
15192;SDS011;7697;51.630;7.484;2023-11-19T14:06:38;15.00;;;4.72;;
15192;SDS011;7697;51.630;7.484;2023-11-19T14:11:40;12.77;;;3.47;;
15192;SDS011;7697;51.630;7.484;2023-11-19T14:16:43;15.30;;;3.70;;
15192;SDS011;7697;51.630;7.484;2023-11-19T14:21:46;15.35;;;4.00;;
15192;SDS011;7697;51.630;7.484;2023-11-19T14:26:47;13.63;;;5.13;;
15192;SDS011;7697;51.630;7.484;2023-11-19T14:31:52;14.80;;;3.85;;
15192;SDS011;7697;51.630;7.484;2023-11-19T14:36:54;11.50;;;4.07;;
15192;SDS011;7697;51.630;7.484;2023-11-19T14:41:56;12.18;;;4.32;;
15192;SDS011;7697;51.630;7.484;2023-11-19T14:47:02;13.07;;;3.85;;
15192;SDS011;7697;51.630;7.484;2023-11-19T14:52:05;14.25;;;4.47;;
15192;SDS011;7697;51.630;7.484;2023-11-19T14:57:07;17.67;;;4.50;;
15192;SDS011;7697;51.630;7.484;2023-11-19T15:02:10;13.68;;;4.13;;
15192;SDS011;7697;51.630;7.484;2023-11-19T15:07:12;17.17;;;4.25;;
15192;SDS011;7697;51.630;7.484;2023-11-19T15:12:14;10.25;;;3.70;;
15192;SDS011;7697;51.630;7.484;2023-11-19T15:17:18;11.65;;;3.70;;
15192;SDS011;7697;51.630;7.484;2023-11-19T15:22:19;12.32;;;4.00;;
15192;SDS011;7697;51.630;7.484;2023-11-19T15:27:21;11.82;;;3.28;;
15192;SDS011;7697;51.630;7.484;2023-11-19T15:32:24;10.77;;;3.67;;
15192;SDS011;7697;51.630;7.484;2023-11-19T15:37:26;11.32;;;3.80;;
15192;SDS011;7697;51.630;7.484;2023-11-19T15:42:29;12.98;;;4.15;;
15192;SDS011;7697;51.630;7.484;2023-11-19T15:47:32;11.95;;;3.65;;
15192;SDS011;7697;51.630;7.484;2023-11-19T15:52:35;11.25;;;4.05;;
15192;SDS011;7697;51.630;7.484;2023-11-19T15:57:38;12.10;;;3.95;;
15192;SDS011;7697;51.630;7.484;2023-11-19T16:02:41;12.43;;;4.00;;
15192;SDS011;7697;51.630;7.484;2023-11-19T16:07:43;12.38;;;3.60;;
15192;SDS011;7697;51.630;7.484;2023-11-19T16:12:45;13.02;;;3.92;;
15192;SDS011;7697;51.630;7.484;2023-11-19T16:17:49;10.95;;;3.63;;
15192;SDS011;7697;51.630;7.484;2023-11-19T16:22:50;10.73;;;3.25;;
15192;SDS011;7697;51.630;7.484;2023-11-19T16:27:52;13.80;;;3.40;;
15192;SDS011;7697;51.630;7.484;2023-11-19T16:32:57;15.82;;;4.13;;
15192;SDS011;7697;51.630;7.484;2023-11-19T16:37:59;12.70;;;3.60;;
15192;SDS011;7697;51.630;7.484;2023-11-19T16:43:04;16.38;;;4.20;;
15192;SDS011;7697;51.630;7.484;2023-11-19T16:48:08;11.77;;;3.22;;
15192;SDS011;7697;51.630;7.484;2023-11-19T16:53:10;10.57;;;3.78;;
15192;SDS011;7697;51.630;7.484;2023-11-19T16:58:11;11.15;;;4.20;;
15192;SDS011;7697;51.630;7.484;2023-11-19T17:03:15;13.10;;;4.22;;
15192;SDS011;7697;51.630;7.484;2023-11-19T17:08:16;15.73;;;4.30;;
15192;SDS011;7697;51.630;7.484;2023-11-19T17:13:18;11.55;;;3.35;;
15192;SDS011;7697;51.630;7.484;2023-11-19T17:18:23;11.32;;;3.33;;
15192;SDS011;7697;51.630;7.484;2023-11-19T17:23:25;10.93;;;3.25;;
15192;SDS011;7697;51.630;7.484;2023-11-19T17:28:27;8.95;;;3.17;;
15192;SDS011;7697;51.630;7.484;2023-11-19T17:33:31;13.75;;;4.00;;
15192;SDS011;7697;51.630;7.484;2023-11-19T17:38:32;13.02;;;4.63;;
15192;SDS011;7697;51.630;7.484;2023-11-19T17:43:34;10.65;;;3.65;;
15192;SDS011;7697;51.630;7.484;2023-11-19T17:48:38;12.43;;;3.72;;
15192;SDS011;7697;51.630;7.484;2023-11-19T17:53:40;13.55;;;3.50;;
15192;SDS011;7697;51.630;7.484;2023-11-19T17:58:42;11.27;;;4.13;;
15192;SDS011;7697;51.630;7.484;2023-11-19T18:03:46;12.20;;;4.10;;
15192;SDS011;7697;51.630;7.484;2023-11-19T18:08:47;7.57;;;3.35;;
15192;SDS011;7697;51.630;7.484;2023-11-19T18:13:50;13.48;;;3.90;;
15192;SDS011;7697;51.630;7.484;2023-11-19T18:18:53;14.52;;;4.47;;
15192;SDS011;7697;51.630;7.484;2023-11-19T18:23:54;10.32;;;3.72;;
15192;SDS011;7697;51.630;7.484;2023-11-19T18:28:56;12.23;;;3.33;;
15192;SDS011;7697;51.630;7.484;2023-11-19T18:33:59;11.60;;;3.00;;
15192;SDS011;7697;51.630;7.484;2023-11-19T18:39:05;11.63;;;3.42;;
15192;SDS011;7697;51.630;7.484;2023-11-19T18:44:12;10.95;;;3.53;;
15192;SDS011;7697;51.630;7.484;2023-11-19T18:49:20;16.35;;;3.78;;
15192;SDS011;7697;51.630;7.484;2023-11-19T18:54:25;13.68;;;3.58;;
15192;SDS011;7697;51.630;7.484;2023-11-19T18:59:27;13.63;;;3.75;;
15192;SDS011;7697;51.630;7.484;2023-11-19T19:04:34;12.90;;;3.50;;
15192;SDS011;7697;51.630;7.484;2023-11-19T19:09:45;10.55;;;3.25;;
15192;SDS011;7697;51.630;7.484;2023-11-19T19:14:53;12.15;;;3.42;;
15192;SDS011;7697;51.630;7.484;2023-11-19T19:20:02;16.05;;;4.47;;
15192;SDS011;7697;51.630;7.484;2023-11-19T19:25:11;12.02;;;3.40;;
15192;SDS011;7697;51.630;7.484;2023-11-19T19:30:16;7.57;;;2.72;;
15192;SDS011;7697;51.630;7.484;2023-11-19T19:35:25;9.52;;;3.13;;
15192;SDS011;7697;51.630;7.484;2023-11-19T19:40:30;10.02;;;2.95;;
15192;SDS011;7697;51.630;7.484;2023-11-19T19:45:34;8.15;;;2.63;;
15192;SDS011;7697;51.630;7.484;2023-11-19T19:50:40;4.78;;;2.15;;
15192;SDS011;7697;51.630;7.484;2023-11-19T19:55:43;4.50;;;1.80;;
15192;SDS011;7697;51.630;7.484;2023-11-19T20:00:48;7.95;;;2.13;;
15192;SDS011;7697;51.630;7.484;2023-11-19T20:05:56;5.38;;;2.00;;
15192;SDS011;7697;51.630;7.484;2023-11-19T20:11:05;5.22;;;1.90;;
15192;SDS011;7697;51.630;7.484;2023-11-19T20:16:12;4.03;;;1.95;;
15192;SDS011;7697;51.630;7.484;2023-11-19T20:21:20;5.05;;;2.15;;
15192;SDS011;7697;51.630;7.484;2023-11-19T20:26:29;5.30;;;2.20;;
15192;SDS011;7697;51.630;7.484;2023-11-19T20:31:39;5.38;;;2.25;;
15192;SDS011;7697;51.630;7.484;2023-11-19T20:36:48;3.33;;;1.60;;
15192;SDS011;7697;51.630;7.484;2023-11-19T20:41:55;5.15;;;1.92;;
15192;SDS011;7697;51.630;7.484;2023-11-19T20:46:59;7.47;;;2.53;;
15192;SDS011;7697;51.630;7.484;2023-11-19T20:52:09;4.55;;;1.85;;
15192;SDS011;7697;51.630;7.484;2023-11-19T20:57:18;4.50;;;2.00;;
15192;SDS011;7697;51.630;7.484;2023-11-19T21:02:26;6.65;;;2.00;;
15192;SDS011;7697;51.630;7.484;2023-11-19T21:07:36;3.90;;;1.98;;
15192;SDS011;7697;51.630;7.484;2023-11-19T21:12:51;4.85;;;1.85;;
15192;SDS011;7697;51.630;7.484;2023-11-19T21:17:54;3.40;;;1.70;;
15192;SDS011;7697;51.630;7.484;2023-11-19T21:23:03;3.65;;;1.40;;
15192;SDS011;7697;51.630;7.484;2023-11-19T21:28:13;2.55;;;1.45;;
15192;SDS011;7697;51.630;7.484;2023-11-19T21:33:19;4.32;;;2.40;;
15192;SDS011;7697;51.630;7.484;2023-11-19T21:38:26;2.83;;;1.70;;
15192;SDS011;7697;51.630;7.484;2023-11-19T21:43:32;5.30;;;2.20;;
15192;SDS011;7697;51.630;7.484;2023-11-19T21:48:35;5.25;;;2.70;;
15192;SDS011;7697;51.630;7.484;2023-11-19T21:53:40;6.30;;;2.70;;
15192;SDS011;7697;51.630;7.484;2023-11-19T21:58:50;9.45;;;2.92;;
15192;SDS011;7697;51.630;7.484;2023-11-19T22:03:55;7.13;;;3.15;;
15192;SDS011;7697;51.630;7.484;2023-11-19T22:09:16;8.05;;;3.20;;
15192;SDS011;7697;51.630;7.484;2023-11-19T22:14:39;4.93;;;2.70;;
15192;SDS011;7697;51.630;7.484;2023-11-19T22:19:46;5.38;;;2.67;;
15192;SDS011;7697;51.630;7.484;2023-11-19T22:25:18;5.00;;;2.30;;
15192;SDS011;7697;51.630;7.484;2023-11-19T22:30:27;6.30;;;2.80;;
15192;SDS011;7697;51.630;7.484;2023-11-19T22:35:34;4.80;;;2.67;;
15192;SDS011;7697;51.630;7.484;2023-11-19T22:40:42;5.55;;;2.80;;
15192;SDS011;7697;51.630;7.484;2023-11-19T22:45:49;5.47;;;2.72;;
15192;SDS011;7697;51.630;7.484;2023-11-19T22:50:52;3.83;;;2.28;;
15192;SDS011;7697;51.630;7.484;2023-11-19T22:56:00;4.65;;;2.38;;
15192;SDS011;7697;51.630;7.484;2023-11-19T23:01:07;3.65;;;2.30;;
15192;SDS011;7697;51.630;7.484;2023-11-19T23:06:12;5.88;;;2.58;;
15192;SDS011;7697;51.630;7.484;2023-11-19T23:11:27;6.03;;;2.30;;
15192;SDS011;7697;51.630;7.484;2023-11-19T23:16:50;7.78;;;2.40;;
15192;SDS011;7697;51.630;7.484;2023-11-19T23:22:19;8.52;;;2.42;;
15192;SDS011;7697;51.630;7.484;2023-11-19T23:27:28;8.63;;;2.50;;
15192;SDS011;7697;51.630;7.484;2023-11-19T23:32:35;5.13;;;2.20;;
15192;SDS011;7697;51.630;7.484;2023-11-19T23:37:48;6.50;;;2.67;;
15192;SDS011;7697;51.630;7.484;2023-11-19T23:42:56;6.57;;;3.00;;
15192;SDS011;7697;51.630;7.484;2023-11-19T23:48:01;7.53;;;2.83;;
15192;SDS011;7697;51.630;7.484;2023-11-19T23:53:20;7.93;;;3.17;;
15192;SDS011;7697;51.630;7.484;2023-11-19T23:58:34;6.47;;;2.67;;
